Time;durP1;ratioP1;P1;durP2;ratioP2;P2;SDS_P1;SDS_P2;PMS_P1;PMS_P2;Temp;Humidity;BMP_temperature;BMP_pressure;BME280_temperature;BME280_humidity;BME280_pressure;Samples;Min_cycle;Max_cycle;Signal;HPM_P1;HPM_P2
2023/06/07 00:01:27;;;;;;;0.50;0.50;;;21.10;70.70;;;;;;5075296;28;20260;-86
2023/06/07 00:03:56;;;;;;;0.43;0.43;;;21.10;70.20;;;;;;5084265;28;20599;-86
2023/06/07 00:06:25;;;;;;;0.60;0.47;;;21.10;70.10;;;;;;5085058;28;20242;-86
2023/06/07 00:08:53;;;;;;;0.33;0.30;;;21.00;70.40;;;;;;5085289;28;20190;-85
2023/06/07 00:11:22;;;;;;;0.97;0.57;;;21.00;70.30;;;;;;5090954;28;20216;-85
2023/06/07 00:13:50;;;;;;;0.37;0.37;;;21.00;70.20;;;;;;5085857;28;20336;-86
2023/06/07 00:16:20;;;;;;;0.43;0.43;;;21.00;70.30;;;;;;5087138;28;20217;-86
2023/06/07 00:18:49;;;;;;;0.60;0.50;;;20.90;70.20;;;;;;5083776;28;20572;-86
2023/06/07 00:21:20;;;;;;;0.50;0.50;;;21.00;70.10;;;;;;5089478;28;20246;-85
2023/06/07 00:23:48;;;;;;;0.33;0.33;;;20.90;69.90;;;;;;5084181;28;20191;-85
2023/06/07 00:26:17;;;;;;;4.53;1.43;;;20.90;70.20;;;;;;5086487;28;20202;-86
2023/06/07 00:28:45;;;;;;;0.57;0.47;;;20.90;70.20;;;;;;5094022;28;20206;-85
2023/06/07 00:31:14;;;;;;;0.30;0.30;;;20.90;70.20;;;;;;5087896;28;20205;-84
2023/06/07 00:33:43;;;;;;;0.20;0.20;;;20.90;70.10;;;;;;5076851;28;20199;-84
2023/06/07 00:36:12;;;;;;;0.33;0.33;;;20.80;70.10;;;;;;5081697;28;20241;-85
2023/06/07 00:38:40;;;;;;;0.20;0.20;;;20.80;70.50;;;;;;5090558;28;20201;-86
2023/06/07 00:41:08;;;;;;;0.27;0.27;;;20.80;70.40;;;;;;5086931;28;20190;-84
2023/06/07 00:43:37;;;;;;;0.20;0.20;;;20.80;70.70;;;;;;5084549;28;20197;-84
2023/06/07 00:46:07;;;;;;;0.40;0.40;;;20.80;70.50;;;;;;5089812;28;20209;-85
2023/06/07 00:48:36;;;;;;;0.40;0.40;;;20.80;71.00;;;;;;5089581;28;20196;-85
2023/06/07 00:51:08;;;;;;;0.30;0.30;;;20.70;71.40;;;;;;5097636;28;20645;-86
2023/06/07 00:53:37;;;;;;;0.67;0.63;;;20.70;71.40;;;;;;5105370;28;20215;-86
2023/06/07 00:56:06;;;;;;;4.00;0.80;;;20.70;71.10;;;;;;5090490;28;20562;-85
2023/06/07 00:58:35;;;;;;;0.30;0.30;;;20.70;72.20;;;;;;5090873;28;20194;-86
2023/06/07 01:01:04;;;;;;;0.90;0.50;;;20.70;71.70;;;;;;5081062;27;20198;-85
2023/06/07 01:03:34;;;;;;;0.40;0.40;;;20.60;71.60;;;;;;5086530;28;20229;-86
2023/06/07 01:06:03;;;;;;;1.23;0.40;;;20.60;71.70;;;;;;5077869;28;20199;-84
2023/06/07 01:08:34;;;;;;;0.77;0.40;;;20.60;71.50;;;;;;5088123;28;20570;-86
2023/06/07 01:11:03;;;;;;;0.63;0.63;;;20.60;72.60;;;;;;5100631;28;20185;-85
2023/06/07 01:13:32;;;;;;;0.70;0.70;;;20.50;72.80;;;;;;5090292;28;20609;-85
2023/06/07 01:16:01;;;;;;;0.20;0.20;;;20.50;72.50;;;;;;5099630;28;20197;-85
2023/06/07 01:18:30;;;;;;;0.33;0.33;;;20.50;73.30;;;;;;5087286;28;20226;-85
2023/06/07 01:20:59;;;;;;;0.30;0.30;;;20.40;73.00;;;;;;5082378;28;20190;-85
2023/06/07 01:23:31;;;;;;;0.30;0.30;;;20.40;74.10;;;;;;5084283;28;20716;-86
2023/06/07 01:26:01;;;;;;;0.47;0.43;;;20.40;73.10;;;;;;5089700;28;20197;-84
2023/06/07 01:28:33;;;;;;;0.47;0.47;;;20.40;73.40;;;;;;5081122;28;20222;-85
2023/06/07 01:31:03;;;;;;;0.30;0.30;;;20.40;73.30;;;;;;5089700;28;20196;-83
2023/06/07 01:33:34;;;;;;;0.30;0.30;;;20.30;73.20;;;;;;5085260;28;20289;-86
2023/06/07 01:36:04;;;;;;;0.50;0.47;;;20.30;74.10;;;;;;5100625;28;20189;-85
2023/06/07 01:38:34;;;;;;;1.07;0.77;;;20.30;74.30;;;;;;5089677;28;20677;-87
2023/06/07 01:41:04;;;;;;;0.40;0.40;;;20.30;73.80;;;;;;5086709;28;20198;-86
2023/06/07 01:43:32;;;;;;;0.57;0.43;;;20.30;74.40;;;;;;5080139;28;20198;-86
2023/06/07 01:46:00;;;;;;;0.93;0.67;;;20.30;74.50;;;;;;5094097;28;20544;-86
2023/06/07 01:48:29;;;;;;;0.30;0.30;;;20.30;74.40;;;;;;5081088;28;20617;-87
2023/06/07 01:50:57;;;;;;;0.73;0.40;;;20.30;74.30;;;;;;5099228;28;20190;-86
2023/06/07 01:53:25;;;;;;;0.43;0.43;;;20.20;74.00;;;;;;5080922;28;20277;-86
2023/06/07 01:56:04;;;;;;;0.67;0.33;;;20.20;74.20;;;;;;5094975;28;20193;-87
2023/06/07 01:58:41;;;;;;;0.40;0.40;;;20.20;74.00;;;;;;5088797;28;20210;-86
2023/06/07 02:01:17;;;;;;;0.30;0.30;;;20.20;74.30;;;;;;5082238;28;20240;-86
2023/06/07 02:03:51;;;;;;;1.33;1.03;;;20.20;74.30;;;;;;5078595;28;20216;-86
2023/06/07 02:06:30;;;;;;;0.30;0.30;;;20.10;75.00;;;;;;5084385;28;20186;-84
2023/06/07 02:09:02;;;;;;;2.40;0.50;;;20.10;75.50;;;;;;5091105;28;20193;-86
2023/06/07 02:11:33;;;;;;;0.70;0.50;;;20.10;75.30;;;;;;5082435;28;20186;-86
2023/06/07 02:14:02;;;;;;;0.57;0.40;;;20.10;75.60;;;;;;5080405;28;20275;-85
2023/06/07 02:16:35;;;;;;;0.30;0.30;;;20.10;75.50;;;;;;5087506;28;20204;-85
2023/06/07 02:19:06;;;;;;;1.03;0.57;;;20.00;76.00;;;;;;5072467;28;20226;-85
2023/06/07 02:21:36;;;;;;;1.40;0.90;;;20.00;75.90;;;;;;5085026;28;20297;-85
2023/06/07 02:24:05;;;;;;;1.00;0.50;;;20.00;75.50;;;;;;5080060;28;20200;-85
2023/06/07 02:26:36;;;;;;;0.60;0.50;;;20.00;75.80;;;;;;5102306;28;20284;-85
2023/06/07 02:29:05;;;;;;;0.27;0.27;;;20.00;75.40;;;;;;5082415;28;20189;-85
2023/06/07 02:31:33;;;;;;;0.30;0.30;;;20.00;76.10;;;;;;5081742;28;20639;-85
2023/06/07 02:34:01;;;;;;;0.33;0.30;;;20.00;76.30;;;;;;5087539;28;20243;-85
2023/06/07 02:36:33;;;;;;;0.50;0.50;;;20.00;76.30;;;;;;5084975;28;20193;-86
2023/06/07 02:39:02;;;;;;;0.50;0.50;;;19.90;76.60;;;;;;5079202;28;20665;-85
2023/06/07 02:41:30;;;;;;;0.40;0.40;;;19.90;76.70;;;;;;5081015;28;20221;-83
2023/06/07 02:44:00;;;;;;;0.50;0.40;;;19.90;77.60;;;;;;5075075;28;20541;-85
2023/06/07 02:46:28;;;;;;;1.00;0.97;;;19.90;78.20;;;;;;5090243;28;20722;-84
2023/06/07 02:48:57;;;;;;;0.53;0.53;;;19.90;77.10;;;;;;5083727;28;20285;-85
2023/06/07 02:51:26;;;;;;;0.47;0.47;;;19.90;76.80;;;;;;5091747;28;20198;-85
2023/06/07 02:53:54;;;;;;;0.33;0.33;;;19.90;77.10;;;;;;5091323;28;20186;-87
2023/06/07 02:56:23;;;;;;;0.50;0.50;;;19.90;76.80;;;;;;5090922;28;20197;-86
2023/06/07 02:58:52;;;;;;;1.20;0.77;;;19.80;77.10;;;;;;5089887;28;20292;-87
2023/06/07 03:01:21;;;;;;;2.43;0.30;;;19.80;77.20;;;;;;5087702;28;20194;-87
2023/06/07 03:03:50;;;;;;;0.50;0.50;;;19.80;78.00;;;;;;5083738;28;20694;-86
2023/06/07 03:06:19;;;;;;;0.60;0.60;;;19.80;78.10;;;;;;5085617;28;20236;-86
2023/06/07 03:08:47;;;;;;;0.80;0.70;;;19.80;78.60;;;;;;5087239;28;20222;-87
2023/06/07 03:11:16;;;;;;;1.23;0.47;;;19.80;78.30;;;;;;5091678;28;20229;-86
2023/06/07 03:13:46;;;;;;;0.63;0.63;;;19.80;78.40;;;;;;5093573;28;21136;-86
2023/06/07 03:16:15;;;;;;;0.40;0.40;;;19.80;78.70;;;;;;5095586;28;20206;-87
2023/06/07 03:18:45;;;;;;;0.30;0.30;;;19.80;78.80;;;;;;5090276;28;20711;-87
2023/06/07 03:21:13;;;;;;;0.93;0.67;;;19.70;79.00;;;;;;5087928;28;20938;-86
2023/06/07 03:23:42;;;;;;;1.23;0.70;;;19.70;78.80;;;;;;5087983;28;20202;-84
2023/06/07 03:26:11;;;;;;;0.93;0.43;;;19.60;78.80;;;;;;5094297;28;20189;-87
2023/06/07 03:28:39;;;;;;;0.20;0.20;;;19.60;78.80;;;;;;5094914;28;20201;-84
2023/06/07 03:31:07;;;;;;;1.03;0.70;;;19.60;79.00;;;;;;5095214;28;20194;-86
2023/06/07 03:33:36;;;;;;;0.50;0.30;;;19.60;80.00;;;;;;5093860;28;20190;-85
2023/06/07 03:36:07;;;;;;;0.50;0.40;;;19.60;80.00;;;;;;5087964;28;20204;-87
2023/06/07 03:38:35;;;;;;;1.33;0.50;;;19.60;80.10;;;;;;5091891;28;20218;-87
2023/06/07 03:41:04;;;;;;;0.77;0.63;;;19.60;80.50;;;;;;5092762;28;20616;-84
2023/06/07 03:43:32;;;;;;;1.40;0.73;;;19.60;82.20;;;;;;5093699;28;20564;-86
2023/06/07 03:46:00;;;;;;;0.63;0.50;;;19.60;82.70;;;;;;5091053;28;20206;-85
2023/06/07 03:48:29;;;;;;;1.20;0.83;;;19.60;82.10;;;;;;5099448;28;20193;-86
2023/06/07 03:50:58;;;;;;;11.73;0.80;;;19.60;82.50;;;;;;5086870;28;20193;-86
2023/06/07 03:53:27;;;;;;;0.40;0.40;;;19.60;82.60;;;;;;5074522;28;20194;-86
2023/06/07 03:55:56;;;;;;;0.50;0.50;;;19.60;82.20;;;;;;5084838;28;20194;-85
2023/06/07 03:58:25;;;;;;;0.53;0.53;;;19.60;82.60;;;;;;5087802;28;20217;-85
2023/06/07 04:00:54;;;;;;;0.53;0.50;;;19.60;82.30;;;;;;5090426;28;20191;-84
2023/06/07 04:03:24;;;;;;;0.70;0.60;;;19.70;82.60;;;;;;5083382;28;20976;-86
2023/06/07 04:05:53;;;;;;;0.63;0.60;;;19.70;82.50;;;;;;5082991;28;20186;-86
2023/06/07 04:08:21;;;;;;;0.43;0.43;;;19.70;82.60;;;;;;5100395;28;20202;-86
2023/06/07 04:10:52;;;;;;;0.57;0.57;;;19.70;82.30;;;;;;5089986;28;20545;-86
2023/06/07 04:13:21;;;;;;;0.30;0.30;;;19.80;82.80;;;;;;5096741;28;20723;-86
2023/06/07 04:15:49;;;;;;;0.50;0.50;;;19.80;83.20;;;;;;5087592;28;20191;-83
2023/06/07 04:18:17;;;;;;;2.87;1.13;;;19.80;83.10;;;;;;5094219;28;20221;-84
2023/06/07 04:20:45;;;;;;;1.13;0.77;;;19.80;82.60;;;;;;5087227;28;20505;-85
2023/06/07 04:23:14;;;;;;;0.93;0.67;;;19.90;83.10;;;;;;5082138;28;20221;-86
2023/06/07 04:25:43;;;;;;;1.70;0.67;;;19.90;83.50;;;;;;5088221;28;20197;-84
2023/06/07 04:28:13;;;;;;;0.40;0.40;;;19.90;83.40;;;;;;5089902;28;20562;-84
2023/06/07 04:30:42;;;;;;;0.50;0.50;;;19.90;84.00;;;;;;5082582;28;20226;-86
2023/06/07 04:33:13;;;;;;;2.63;1.07;;;19.90;84.30;;;;;;5089820;28;20247;-82
2023/06/07 04:35:42;;;;;;;0.53;0.53;;;19.90;83.90;;;;;;5088849;28;20704;-85
2023/06/07 04:38:12;;;;;;;0.30;0.30;;;20.00;83.70;;;;;;5086595;28;20201;-85
2023/06/07 04:40:42;;;;;;;1.40;0.93;;;20.00;83.20;;;;;;5090672;28;20201;-85
2023/06/07 04:43:12;;;;;;;0.20;0.20;;;20.10;83.50;;;;;;5087513;28;20198;-85
2023/06/07 04:45:42;;;;;;;0.47;0.40;;;20.20;83.00;;;;;;5089032;28;20277;-84
2023/06/07 04:48:12;;;;;;;0.93;0.83;;;20.20;83.10;;;;;;5087775;28;20189;-85
2023/06/07 04:50:42;;;;;;;0.47;0.47;;;20.20;83.20;;;;;;5095356;28;20284;-85
2023/06/07 04:53:10;;;;;;;1.60;1.27;;;20.30;83.00;;;;;;5074831;28;20201;-85
2023/06/07 04:55:41;;;;;;;1.10;1.00;;;20.30;83.40;;;;;;5086241;28;20195;-85
2023/06/07 04:58:10;;;;;;;0.77;0.73;;;20.30;83.50;;;;;;5079942;28;20221;-86
2023/06/07 05:00:39;;;;;;;0.83;0.83;;;20.40;83.70;;;;;;5088929;28;20198;-83
2023/06/07 05:03:09;;;;;;;2.17;0.47;;;20.40;83.10;;;;;;5081960;28;20190;-83
2023/06/07 05:05:37;;;;;;;0.40;0.40;;;20.40;83.50;;;;;;5086489;28;20243;-85
2023/06/07 05:08:06;;;;;;;0.60;0.50;;;20.50;82.90;;;;;;5085504;28;20580;-85
2023/06/07 05:10:34;;;;;;;0.83;0.73;;;20.50;82.90;;;;;;5082376;28;20199;-85
2023/06/07 05:13:03;;;;;;;2.03;0.83;;;20.60;82.60;;;;;;5081115;28;20541;-86
2023/06/07 05:15:32;;;;;;;0.67;0.50;;;20.60;82.90;;;;;;5091553;28;20202;-85
2023/06/07 05:18:02;;;;;;;0.90;0.87;;;20.70;82.60;;;;;;5088349;27;20194;-85
2023/06/07 05:20:33;;;;;;;0.57;0.57;;;20.80;82.40;;;;;;5086370;28;20317;-86
2023/06/07 05:23:02;;;;;;;1.02;0.50;;;20.80;82.10;;;;;;5079714;28;20686;-85
2023/06/07 05:25:31;;;;;;;1.98;0.63;;;20.90;82.00;;;;;;5081801;28;20201;-86
2023/06/07 05:27:59;;;;;;;1.13;0.50;;;21.00;81.80;;;;;;5090772;28;20601;-84
2023/06/07 05:30:41;;;;;;;0.57;0.52;;;21.00;81.60;;;;;;5077354;28;20194;-86
2023/06/07 05:33:09;;;;;;;0.70;0.63;;;21.10;81.40;;;;;;5093016;28;20201;-85
2023/06/07 05:35:44;;;;;;;0.90;0.85;;;21.10;81.30;;;;;;5087566;28;20324;-86
2023/06/07 05:38:13;;;;;;;0.68;0.68;;;21.20;81.10;;;;;;5085811;28;20196;-84
2023/06/07 05:40:41;;;;;;;2.72;0.90;;;21.30;80.80;;;;;;5075487;28;20495;-89
2023/06/07 05:43:09;;;;;;;2.65;0.60;;;21.40;81.10;;;;;;5086934;28;20186;-86
2023/06/07 05:45:40;;;;;;;0.45;0.45;;;21.40;80.80;;;;;;5086516;28;20628;-89
2023/06/07 05:48:08;;;;;;;2.42;0.73;;;21.40;80.80;;;;;;5089588;28;20567;-85
2023/06/07 05:50:37;;;;;;;0.40;0.40;;;21.50;80.40;;;;;;5079440;28;20217;-87
2023/06/07 05:53:06;;;;;;;1.02;0.60;;;21.50;80.20;;;;;;5090760;28;20842;-87
2023/06/07 05:55:36;;;;;;;1.13;1.02;;;21.60;80.20;;;;;;5091604;28;20567;-87
2023/06/07 05:58:04;;;;;;;1.35;0.65;;;21.60;79.60;;;;;;5092542;28;20200;-84
2023/06/07 06:00:33;;;;;;;1.33;0.70;;;21.70;79.20;;;;;;5089592;28;20672;-86
2023/06/07 06:03:01;;;;;;;0.20;0.20;;;21.70;78.70;;;;;;5079386;28;20191;-84
2023/06/07 06:05:30;;;;;;;0.50;0.50;;;21.70;78.20;;;;;;5082507;28;20213;-85
2023/06/07 06:07:59;;;;;;;3.53;0.65;;;21.80;77.80;;;;;;5080403;28;20574;-85
2023/06/07 06:10:28;;;;;;;6.90;1.10;;;21.90;77.90;;;;;;5081087;28;20204;-86
2023/06/07 06:13:00;;;;;;;0.73;0.50;;;22.00;77.70;;;;;;5096202;28;20186;-88
2023/06/07 06:15:28;;;;;;;1.55;0.95;;;22.00;77.30;;;;;;5093125;28;20654;-89
2023/06/07 06:17:57;;;;;;;0.28;0.28;;;22.10;77.00;;;;;;5092090;28;20206;-89
2023/06/07 06:20:25;;;;;;;0.57;0.32;;;22.20;76.20;;;;;;5077536;28;20268;-90
2023/06/07 06:22:54;;;;;;;0.30;0.30;;;22.20;75.50;;;;;;5077475;28;20230;-92
2023/06/07 06:25:24;;;;;;;0.20;0.20;;;22.30;75.30;;;;;;5087653;28;20194;-90
2023/06/07 06:27:54;;;;;;;0.50;0.50;;;22.40;74.50;;;;;;5086597;28;20186;-92
2023/06/07 06:30:23;;;;;;;0.38;0.38;;;22.40;73.90;;;;;;5076780;28;20201;-90
2023/06/07 06:32:51;;;;;;;0.30;0.30;;;22.50;73.80;;;;;;5074214;28;20201;-90
2023/06/07 06:35:20;;;;;;;0.75;0.60;;;22.50;73.60;;;;;;5078848;28;20286;-88
2023/06/07 06:37:49;;;;;;;1.42;0.93;;;22.60;73.20;;;;;;5073112;28;20209;-89
2023/06/07 06:40:20;;;;;;;0.47;0.45;;;22.60;72.50;;;;;;5079504;28;20213;-92
2023/06/07 06:42:48;;;;;;;0.80;0.75;;;22.70;72.70;;;;;;5085657;28;20227;-90
2023/06/07 06:45:18;;;;;;;0.52;0.30;;;22.80;72.00;;;;;;5084381;28;20189;-90
2023/06/07 06:47:46;;;;;;;2.08;0.85;;;22.80;72.00;;;;;;5084271;28;20200;-90
2023/06/07 06:50:15;;;;;;;2.38;0.73;;;22.90;71.80;;;;;;5088788;28;20277;-91
2023/06/07 07:13:51;;;;;;;0.40;0.40;;;22.80;67.00;;;;;;5064687;28;20618;-83
2023/06/07 07:16:19;;;;;;;1.95;0.73;;;23.30;66.00;;;;;;5042429;28;20215;-82
2023/06/07 07:18:48;;;;;;;0.40;0.40;;;23.40;65.70;;;;;;5052663;28;20285;-83
2023/06/07 07:21:17;;;;;;;0.85;0.55;;;23.40;66.10;;;;;;5039552;28;20257;-82
2023/06/07 07:23:46;;;;;;;1.75;0.75;;;23.50;65.50;;;;;;5044755;28;20195;-81
2023/06/07 07:26:15;;;;;;;0.70;0.43;;;23.60;65.20;;;;;;5043359;28;20272;-81
2023/06/07 07:28:44;;;;;;;0.43;0.38;;;23.70;64.00;;;;;;5052070;28;20214;-84
2023/06/07 07:31:14;;;;;;;0.45;0.45;;;23.70;63.90;;;;;;5046374;28;20210;-82
2023/06/07 07:33:43;;;;;;;1.02;0.75;;;23.80;64.10;;;;;;5043398;28;20226;-83
2023/06/07 07:36:12;;;;;;;0.32;0.32;;;23.80;61.50;;;;;;5040541;28;20731;-83
2023/06/07 07:38:41;;;;;;;2.33;0.82;;;23.90;61.30;;;;;;5052476;28;20735;-83
2023/06/07 07:41:09;;;;;;;8.48;0.75;;;24.00;61.30;;;;;;5044918;28;20195;-81
2023/06/07 07:43:38;;;;;;;1.17;0.73;;;24.00;61.50;;;;;;5036615;28;20195;-82
2023/06/07 07:46:07;;;;;;;1.27;0.73;;;24.10;62.10;;;;;;5047817;28;20206;-82
2023/06/07 07:48:37;;;;;;;0.50;0.50;;;24.20;61.70;;;;;;5043403;28;20211;-83
2023/06/07 07:51:06;;;;;;;0.40;0.40;;;24.30;61.40;;;;;;5044469;28;20290;-83
2023/06/07 07:53:35;;;;;;;0.52;0.47;;;24.30;60.50;;;;;;5045377;28;20234;-81
2023/06/07 07:56:03;;;;;;;0.52;0.52;;;24.30;59.40;;;;;;5044826;28;20561;-83
2023/06/07 07:58:31;;;;;;;0.73;0.60;;;24.40;59.90;;;;;;5044597;28;20199;-82
2023/06/07 08:01:01;;;;;;;0.40;0.40;;;24.50;60.20;;;;;;5048446;28;20245;-82
2023/06/07 08:03:30;;;;;;;0.82;0.60;;;24.50;60.20;;;;;;5042509;28;20214;-83
2023/06/07 08:06:01;;;;;;;0.98;0.60;;;24.60;59.90;;;;;;5048703;28;20214;-83
2023/06/07 08:08:30;;;;;;;0.30;0.30;;;24.60;59.40;;;;;;5045692;28;20806;-81
2023/06/07 08:11:00;;;;;;;1.60;0.45;;;24.70;59.40;;;;;;5040667;28;20438;-83
2023/06/07 08:13:29;;;;;;;0.50;0.43;;;24.80;59.50;;;;;;5039994;28;20374;-82
2023/06/07 08:15:58;;;;;;;3.40;0.75;;;24.80;58.80;;;;;;5029813;28;20206;-82
2023/06/07 08:18:27;;;;;;;1.08;0.75;;;24.90;58.40;;;;;;5032125;28;20196;-82
2023/06/07 08:20:55;;;;;;;0.50;0.50;;;25.00;58.50;;;;;;5033002;28;20199;-82
2023/06/07 08:23:25;;;;;;;0.90;0.65;;;25.00;58.40;;;;;;5028303;28;20649;-83
2023/06/07 08:25:54;;;;;;;0.40;0.40;;;25.00;57.90;;;;;;5027199;28;20211;-86
2023/06/07 08:28:23;;;;;;;0.70;0.70;;;25.10;57.40;;;;;;5019971;28;20615;-84
2023/06/07 08:30:52;;;;;;;0.73;0.52;;;25.20;56.00;;;;;;5025121;28;20718;-82
2023/06/07 08:33:20;;;;;;;0.32;0.32;;;25.20;55.40;;;;;;5024102;28;20246;-82
2023/06/07 08:35:49;;;;;;;0.45;0.45;;;25.30;55.50;;;;;;5028400;28;20201;-82
2023/06/07 08:38:17;;;;;;;1.17;0.80;;;25.40;55.40;;;;;;5028313;28;20223;-81
2023/06/07 08:40:47;;;;;;;1.17;0.68;;;25.40;55.20;;;;;;5026955;28;20200;-81
2023/06/07 08:43:15;;;;;;;0.57;0.45;;;25.50;55.80;;;;;;5024634;28;20192;-82
2023/06/07 08:45:45;;;;;;;0.93;0.70;;;25.50;55.60;;;;;;5028144;28;20188;-82
2023/06/07 08:48:14;;;;;;;0.38;0.38;;;25.60;54.50;;;;;;5028151;28;21108;-82
2023/06/07 08:50:46;;;;;;;1.13;0.68;;;25.60;54.50;;;;;;5030917;28;20645;-82
2023/06/07 08:53:16;;;;;;;6.88;0.55;;;25.60;53.30;;;;;;5031158;28;20751;-81
2023/06/07 08:55:47;;;;;;;0.80;0.60;;;25.60;53.10;;;;;;5028913;28;20195;-81
2023/06/07 08:58:17;;;;;;;0.77;0.40;;;25.70;53.50;;;;;;5028820;28;20191;-81
2023/06/07 09:00:46;;;;;;;0.25;0.25;;;25.70;52.70;;;;;;5020248;28;20207;-81
2023/06/07 09:03:14;;;;;;;0.40;0.40;;;25.70;52.40;;;;;;5018613;28;20191;-81
2023/06/07 09:05:43;;;;;;;0.43;0.43;;;25.80;52.80;;;;;;5027397;28;20329;-84
2023/06/07 09:08:12;;;;;;;0.50;0.50;;;25.80;52.90;;;;;;5028507;28;20886;-81
2023/06/07 09:10:42;;;;;;;1.45;0.50;;;25.80;51.70;;;;;;5034017;28;20258;-83
2023/06/07 09:13:13;;;;;;;0.30;0.30;;;25.80;51.70;;;;;;5028269;28;20239;-82
2023/06/07 09:15:42;;;;;;;0.32;0.32;;;25.90;51.90;;;;;;5027718;28;20262;-83
2023/06/07 09:18:11;;;;;;;0.25;0.25;;;25.90;52.10;;;;;;5024724;28;20204;-83
2023/06/07 09:20:39;;;;;;;0.63;0.47;;;26.00;51.80;;;;;;5024554;28;20192;-82
2023/06/07 09:23:11;;;;;;;0.70;0.70;;;26.00;51.70;;;;;;5018111;28;20287;-83
2023/06/07 09:25:40;;;;;;;0.47;0.47;;;26.10;51.10;;;;;;5031904;28;20226;-83
2023/06/07 09:28:10;;;;;;;0.77;0.60;;;26.20;51.80;;;;;;5031678;28;20196;-84
2023/06/07 09:30:54;;;;;;;0.43;0.43;;;26.20;51.60;;;;;;5032408;28;20319;-82
2023/06/07 09:33:29;;;;;;;0.50;0.40;;;26.30;52.00;;;;;;5021140;28;20572;-83
2023/06/07 09:36:06;;;;;;;0.70;0.70;;;26.30;51.60;;;;;;5026811;28;22451;-82
2023/06/07 09:38:35;;;;;;;1.48;1.20;;;26.40;51.80;;;;;;5031854;28;20192;-81
2023/06/07 09:41:05;;;;;;;3.92;0.60;;;26.40;50.20;;;;;;5027455;28;20286;-83
2023/06/07 09:43:44;;;;;;;0.75;0.40;;;26.40;51.00;;;;;;5031163;28;20188;-82
2023/06/07 09:46:14;;;;;;;0.52;0.40;;;26.50;51.50;;;;;;5028964;28;20666;-86
2023/06/07 09:48:47;;;;;;;2.60;0.30;;;26.50;49.60;;;;;;5035491;28;20227;-82
2023/06/07 09:51:18;;;;;;;0.43;0.43;;;26.60;50.40;;;;;;5028547;28;20196;-82
2023/06/07 09:53:52;;;;;;;1.23;0.50;;;26.60;50.00;;;;;;5032190;28;20234;-85
2023/06/07 09:56:21;;;;;;;1.27;0.88;;;26.60;49.80;;;;;;5029483;28;20191;-85
2023/06/07 09:58:51;;;;;;;0.28;0.28;;;26.70;50.30;;;;;;5029371;28;20192;-81
2023/06/07 10:01:34;;;;;;;1.65;0.50;;;26.80;50.60;;;;;;5024391;28;20918;-81
2023/06/07 10:04:03;;;;;;;1.13;0.50;;;26.70;49.50;;;;;;5030465;28;20690;-80
2023/06/07 10:06:34;;;;;;;0.30;0.30;;;26.70;49.30;;;;;;5028442;28;20283;-81
2023/06/07 10:09:05;;;;;;;0.95;0.57;;;26.80;49.40;;;;;;5028381;28;20662;-81
2023/06/07 10:11:38;;;;;;;0.40;0.40;;;26.80;49.70;;;;;;5031322;28;20257;-82
2023/06/07 10:14:10;;;;;;;0.52;0.52;;;26.90;49.70;;;;;;5035771;28;20218;-81
2023/06/07 10:16:47;;;;;;;0.40;0.40;;;26.90;49.60;;;;;;5034307;28;20258;-81
2023/06/07 10:19:19;;;;;;;0.52;0.52;;;27.00;49.70;;;;;;5030807;28;20206;-83
2023/06/07 10:21:51;;;;;;;0.82;0.63;;;27.10;49.50;;;;;;5033691;28;20188;-81
2023/06/07 10:24:25;;;;;;;1.00;0.40;;;27.10;49.50;;;;;;5039511;28;20199;-81
2023/06/07 10:26:55;;;;;;;0.52;0.52;;;27.20;49.80;;;;;;5028427;28;20207;-80
2023/06/07 10:29:32;;;;;;;6.65;0.63;;;27.30;50.20;;;;;;5025383;28;20558;-81
2023/06/07 10:32:12;;;;;;;1.05;0.43;;;27.30;49.40;;;;;;5029078;28;20215;-80
2023/06/07 10:34:41;;;;;;;4.13;0.88;;;27.30;49.00;;;;;;5035885;28;20220;-80
2023/06/07 10:37:10;;;;;;;0.70;0.70;;;27.40;49.10;;;;;;5026986;28;20202;-82
2023/06/07 10:39:39;;;;;;;0.30;0.30;;;27.40;49.10;;;;;;5022276;28;20200;-81
2023/06/07 10:42:08;;;;;;;1.52;0.60;;;27.40;49.00;;;;;;5025267;28;20226;-81
2023/06/07 10:44:37;;;;;;;1.15;0.60;;;27.50;48.20;;;;;;5030501;28;20207;-81
2023/06/07 10:47:26;;;;;;;0.30;0.30;;;27.60;48.30;;;;;;5021671;28;20200;-82
2023/06/07 10:49:55;;;;;;;3.00;1.02;;;27.60;48.50;;;;;;5024950;28;20194;-81
2023/06/07 10:52:26;;;;;;;0.68;0.52;;;27.60;48.10;;;;;;5031476;28;20632;-82
2023/06/07 10:54:55;;;;;;;0.20;0.20;;;27.60;47.80;;;;;;5032014;28;20207;-81
2023/06/07 10:57:37;;;;;;;0.45;0.45;;;27.70;47.80;;;;;;5028413;28;20246;-81
2023/06/07 11:00:26;;;;;;;0.68;0.68;;;27.70;47.70;;;;;;5027408;28;20199;-82
2023/06/07 11:03:27;;;;;;;1.02;0.45;;;27.70;48.20;;;;;;5029131;28;20813;-81
2023/06/07 11:06:10;;;;;;;0.43;0.43;;;27.80;48.10;;;;;;5026841;28;20267;-82
2023/06/07 11:08:39;;;;;;;0.30;0.30;;;27.90;47.40;;;;;;5021840;28;20195;-82
2023/06/07 11:11:50;;;;;;;0.30;0.30;;;27.90;46.60;;;;;;5024590;28;20199;-82
2023/06/07 11:14:19;;;;;;;0.38;0.38;;;28.00;47.00;;;;;;5029662;28;20322;-82
2023/06/07 11:16:47;;;;;;;0.63;0.50;;;28.10;47.30;;;;;;5034003;28;20207;-81
2023/06/07 11:19:18;;;;;;;0.32;0.32;;;28.10;47.00;;;;;;5026565;28;20234;-82
2023/06/07 11:22:16;;;;;;;0.52;0.40;;;28.20;46.80;;;;;;5027375;28;20664;-82
2023/06/07 11:24:50;;;;;;;0.45;0.40;;;28.20;46.70;;;;;;5031254;28;20299;-84
2023/06/07 11:27:20;;;;;;;1.42;0.55;;;28.30;47.00;;;;;;5027165;28;20245;-81
2023/06/07 11:29:51;;;;;;;0.57;0.50;;;28.30;47.00;;;;;;5025739;28;20283;-82
2023/06/07 11:32:20;;;;;;;0.38;0.38;;;28.40;46.80;;;;;;5026946;28;20249;-82
2023/06/07 11:34:57;;;;;;;0.50;0.50;;;28.40;46.80;;;;;;5022927;28;20237;-85
2023/06/07 11:37:27;;;;;;;0.40;0.40;;;28.40;46.80;;;;;;5021386;28;20560;-83
2023/06/07 11:40:00;;;;;;;1.20;0.93;;;28.50;46.80;;;;;;5026418;28;20184;-81
2023/06/07 11:42:30;;;;;;;1.02;0.85;;;28.50;45.80;;;;;;5021287;28;20619;-80
2023/06/07 11:44:59;;;;;;;9.93;0.70;;;28.50;46.10;;;;;;5030653;28;20651;-81
2023/06/07 11:47:27;;;;;;;0.98;0.77;;;28.60;46.30;;;;;;5028627;28;20667;-81
2023/06/07 11:49:56;;;;;;;1.95;0.77;;;28.60;46.60;;;;;;5036887;28;20199;-82
2023/06/07 11:52:25;;;;;;;2.15;0.60;;;28.70;46.70;;;;;;5034616;28;20196;-81
2023/06/07 11:54:54;;;;;;;1.23;0.68;;;28.70;46.20;;;;;;5030805;28;20231;-81
2023/06/07 11:57:22;;;;;;;0.55;0.47;;;28.80;46.20;;;;;;5027318;28;20598;-82
2023/06/07 11:59:51;;;;;;;3.20;0.82;;;28.80;46.50;;;;;;5032037;28;20226;-81
2023/06/07 12:02:21;;;;;;;0.45;0.43;;;28.80;46.00;;;;;;5028100;28;20198;-81
2023/06/07 12:04:50;;;;;;;0.50;0.50;;;28.80;45.90;;;;;;5036579;28;20196;-81
2023/06/07 12:07:30;;;;;;;0.40;0.30;;;28.80;45.30;;;;;;5034347;28;20203;-81
2023/06/07 12:10:00;;;;;;;0.38;0.38;;;28.80;45.30;;;;;;5035183;28;20286;-82
2023/06/07 12:12:28;;;;;;;0.20;0.20;;;28.80;45.50;;;;;;5039171;28;20630;-82
2023/06/07 12:15:03;;;;;;;0.57;0.50;;;28.90;45.90;;;;;;5030463;28;20220;-81
2023/06/07 12:17:34;;;;;;;0.75;0.55;;;29.00;46.20;;;;;;5028409;28;20275;-81
2023/06/07 12:20:11;;;;;;;0.40;0.40;;;29.10;46.30;;;;;;5027466;28;20187;-82
2023/06/07 12:22:40;;;;;;;0.77;0.38;;;29.20;45.70;;;;;;5032769;28;20198;-81
2023/06/07 12:25:12;;;;;;;0.35;0.35;;;29.30;44.80;;;;;;5021795;28;20625;-81
2023/06/07 12:27:40;;;;;;;1.05;0.95;;;29.30;44.00;;;;;;5034151;28;20195;-83
2023/06/07 12:30:09;;;;;;;0.73;0.40;;;29.40;44.30;;;;;;5027420;28;20283;-82
2023/06/07 12:32:37;;;;;;;3.00;0.40;;;29.50;44.70;;;;;;5039856;28;20195;-81
2023/06/07 12:35:07;;;;;;;4.10;1.10;;;29.40;43.80;;;;;;5035191;28;20246;-83
2023/06/07 12:37:36;;;;;;;0.20;0.20;;;29.60;44.40;;;;;;5032838;28;20195;-81
2023/06/07 12:40:07;;;;;;;0.25;0.25;;;29.70;45.10;;;;;;5033679;28;20200;-82
2023/06/07 12:42:36;;;;;;;0.50;0.50;;;29.80;44.80;;;;;;5036828;28;20548;-82
2023/06/07 12:45:07;;;;;;;3.03;0.55;;;29.90;44.60;;;;;;5032319;28;20331;-82
2023/06/07 12:47:36;;;;;;;0.50;0.50;;;30.10;45.10;;;;;;5047318;28;20717;-82
2023/06/07 12:50:05;;;;;;;0.30;0.30;;;30.20;45.20;;;;;;5030559;28;20207;-82
2023/06/07 12:52:33;;;;;;;0.55;0.40;;;30.30;45.30;;;;;;5044224;28;20191;-82
2023/06/07 12:55:02;;;;;;;1.55;1.05;;;30.50;45.00;;;;;;5030126;28;20215;-82
2023/06/07 12:57:31;;;;;;;6.65;0.73;;;30.50;44.70;;;;;;5031151;28;20722;-82
2023/06/07 13:00:01;;;;;;;0.38;0.38;;;30.50;42.90;;;;;;5038125;28;20196;-81
2023/06/07 13:02:30;;;;;;;0.40;0.40;;;30.50;43.10;;;;;;5029764;28;20191;-82
2023/06/07 13:04:58;;;;;;;0.35;0.35;;;30.50;43.20;;;;;;5022578;28;20198;-81
2023/06/07 13:07:27;;;;;;;0.20;0.20;;;30.50;42.80;;;;;;5032832;28;20190;-82
2023/06/07 13:09:55;;;;;;;2.53;0.50;;;30.60;43.20;;;;;;5032464;28;20292;-81
2023/06/07 13:12:24;;;;;;;0.60;0.43;;;30.60;43.40;;;;;;5023285;28;20234;-82
2023/06/07 13:14:52;;;;;;;0.80;0.50;;;30.70;43.40;;;;;;5030728;28;20227;-82
2023/06/07 13:17:22;;;;;;;0.40;0.40;;;30.70;42.20;;;;;;5035271;28;20791;-82
2023/06/07 13:19:50;;;;;;;2.72;0.75;;;30.70;42.40;;;;;;5031648;28;20290;-81
2023/06/07 13:22:19;;;;;;;1.33;0.95;;;30.90;42.60;;;;;;5033352;28;20188;-81
2023/06/07 13:24:47;;;;;;;1.75;0.95;;;31.00;42.70;;;;;;5034940;28;20206;-81